Terminal Aerodrome Forecast
Issued by NWS Brownsville, TX

Home | Current Version | Previous Version | Text Only | Print | Product List | Glossary On
Versions: 1 2 3 4 5 6 7 8 9 10 11 12 13 14 15 16
000
FTUS44 KBRO 250534
TAFHRL
TAF
KHRL 250534Z 2506/2606 15008KT P6SM SKC
     FM251500 17020G28KT P6SM FEW035
     FM260200 15015KT P6SM SCT030=

USA.gov is the U.S. government's official web portal to all federal, state and local government web resources and services.